Waasis, Canada
Current Conditions -  °F | °C
As of 9:00 AM on Saturday 25 Oct 2014 (Local Time) from CYFC Reporting Station
Haze Haze  
Wind Chill: 39°   Ceiling: 600
Heat Index: 43°   Visibility: 3mi
Dew Point: 43°   Wind: 7mph
Humidity: 100%   Direction: 310°NW
Pressure: 29.61"   Gusts: NA
Location:  45.83°N, 66.58°W
Report Text: CYFC 251200Z AUTO 31006KT 3SM BR BKN006 OVC012 06/06 A2961 RMK SLP026
Loading
Personal Weather Stations






























Interactive Weather Map
Tropical Storm Tracking
New forecast layout! Learn more

10-Day Weather Forecast

Advertisements
Track Severe Weather on mobile